createdAt,value
2022-08-26T00:00:35.902Z,100064.75
2022-08-26T00:03:39.474Z,100057.47
2022-08-26T00:06:46.182Z,100061.63
2022-08-26T00:09:49.949Z,100058.00
2022-08-26T00:12:52.543Z,100055.47
2022-08-26T00:15:54.744Z,100043.03
2022-08-26T00:18:56.907Z,100052.47
2022-08-26T00:21:59.297Z,100049.41
2022-08-26T00:25:01.841Z,100047.13
2022-08-26T00:28:05.129Z,100050.75
2022-08-26T00:31:11.079Z,100054.50
2022-08-26T00:34:15.389Z,100053.63
2022-08-26T00:37:18.491Z,100053.78
2022-08-26T00:40:22.438Z,100050.41
2022-08-26T00:43:25.124Z,100051.44
2022-08-26T00:46:29.067Z,100050.59
2022-08-26T00:49:44.947Z,100050.59
2022-08-26T00:52:47.187Z,100046.75
2022-08-26T00:55:55.606Z,100050.19
2022-08-26T00:58:58.723Z,100043.31
2022-08-26T01:02:00.941Z,100050.25
2022-08-26T01:05:05.416Z,100050.75
2022-08-26T01:08:08.182Z,100045.72
2022-08-26T01:11:10.632Z,100046.91
2022-08-26T01:14:13.637Z,100050.63
2022-08-26T01:17:15.654Z,100029.22
2022-08-26T01:20:23.684Z,100041.72
2022-08-26T01:23:26.845Z,100044.41
2022-08-26T01:26:31.705Z,100036.19
2022-08-26T01:29:35.596Z,100028.78
2022-08-26T01:32:38.828Z,100035.34
2022-08-26T01:35:41.490Z,100045.44
2022-08-26T01:38:43.608Z,100036.00
2022-08-26T01:41:45.591Z,100028.94
2022-08-26T01:44:49.851Z,100049.31
2022-08-26T01:47:56.664Z,100029.34
2022-08-26T01:50:59.530Z,100042.56
2022-08-26T01:54:01.946Z,100033.97
2022-08-26T01:57:04.780Z,100040.31
2022-08-26T02:00:08.558Z,100035.09
2022-08-26T02:03:21.717Z,100036.06
2022-08-26T02:06:24.143Z,100039.69
2022-08-26T02:09:26.951Z,100038.00
2022-08-26T02:12:28.933Z,100037.06
2022-08-26T02:15:31.196Z,100039.84
2022-08-26T02:18:33.843Z,100039.06
2022-08-26T02:21:36.334Z,100038.75
2022-08-26T02:24:47.561Z,100038.13
2022-08-26T02:27:50.124Z,100040.06
2022-08-26T02:30:52.220Z,100040.44
2022-08-26T02:33:54.281Z,100045.97
2022-08-26T02:36:57.252Z,100044.25
2022-08-26T02:40:00.624Z,100037.72
2022-08-26T02:43:02.786Z,100035.91
2022-08-26T02:46:05.053Z,100039.44
2022-08-26T02:49:07.156Z,100036.47
2022-08-26T02:52:09.202Z,100034.94
2022-08-26T02:55:11.502Z,100043.00
2022-08-26T02:58:13.670Z,100043.41
2022-08-26T03:01:26.646Z,100048.22
2022-08-26T03:04:29.115Z,100042.72
2022-08-26T03:07:35.494Z,100056.12
2022-08-26T03:10:38.492Z,100047.53
2022-08-26T03:13:42.404Z,100050.63
2022-08-26T03:16:44.483Z,100057.84
2022-08-26T03:19:54.661Z,100041.47
2022-08-26T03:22:59.568Z,100039.78
2022-08-26T03:26:01.935Z,100032.09
2022-08-26T03:29:23.105Z,100034.81
2022-08-26T03:32:27.215Z,100024.06
2022-08-26T03:35:29.408Z,100017.59
2022-08-26T03:38:31.630Z,100020.63
2022-08-26T03:41:34.470Z,100023.72
2022-08-26T03:44:37.141Z,100018.31
2022-08-26T03:47:44.804Z,100022.22
2022-08-26T03:50:46.751Z,100022.12
2022-08-26T03:53:50.765Z,100030.13
2022-08-26T03:56:52.784Z,100029.97
2022-08-26T03:59:55.292Z,100027.84
2022-08-26T04:02:57.731Z,100030.00
2022-08-26T04:05:59.819Z,100037.31
2022-08-26T04:09:04.322Z,100024.09
2022-08-26T04:12:06.594Z,100031.00
2022-08-26T04:15:11.256Z,100022.41
2022-08-26T04:18:13.385Z,100022.88
2022-08-26T04:21:15.549Z,100032.81
2022-08-26T04:24:17.835Z,100028.53
2022-08-26T04:27:20.060Z,100025.72
2022-08-26T04:30:22.877Z,100022.31
2022-08-26T04:33:33.200Z,100024.47
2022-08-26T04:36:35.558Z,100031.66
2022-08-26T04:39:38.419Z,100028.31
2022-08-26T04:42:40.475Z,100027.00
2022-08-26T04:45:44.891Z,100016.66
2022-08-26T04:48:48.871Z,100017.50
2022-08-26T04:51:51.048Z,100022.44
2022-08-26T04:54:53.040Z,100017.84
2022-08-26T04:57:58.834Z,100018.28
2022-08-26T05:01:03.225Z,100021.97
2022-08-26T05:04:08.200Z,100027.19
2022-08-26T05:07:11.821Z,100021.41
2022-08-26T05:10:13.934Z,100023.69
2022-08-26T05:13:18.742Z,100023.16
2022-08-26T05:16:23.083Z,100028.22
2022-08-26T05:19:25.243Z,100021.94
2022-08-26T05:22:29.920Z,100022.50
2022-08-26T05:25:31.942Z,100024.53
2022-08-26T05:28:34.153Z,100024.38
2022-08-26T05:31:37.284Z,100022.94
2022-08-26T05:34:39.335Z,100024.47
2022-08-26T05:37:44.884Z,100025.91
2022-08-26T05:40:52.712Z,100021.25
2022-08-26T05:44:00.156Z,100027.69
2022-08-26T05:47:02.270Z,100033.53
2022-08-26T05:50:06.587Z,100033.87
2022-08-26T05:53:09.713Z,100032.94
2022-08-26T05:56:12.388Z,100028.53
2022-08-26T05:59:14.879Z,100024.03
2022-08-26T06:02:16.936Z,100030.28
2022-08-26T06:05:19.255Z,100023.91
2022-08-26T06:08:23.954Z,100031.81
2022-08-26T06:11:26.783Z,100030.22
2022-08-26T06:14:30.592Z,100035.94
2022-08-26T06:17:32.861Z,100027.59
2022-08-26T06:20:36.667Z,100036.19
2022-08-26T06:23:57.535Z,100034.69
2022-08-26T06:27:19.122Z,100041.13
2022-08-26T06:30:21.992Z,100035.50
2022-08-26T06:33:24.992Z,100035.53
2022-08-26T06:36:28.468Z,100042.84
2022-08-26T06:39:33.203Z,100040.31
2022-08-26T06:42:35.534Z,100040.94
2022-08-26T06:45:41.051Z,100025.06
2022-08-26T06:48:43.910Z,100030.28
2022-08-26T06:51:46.584Z,100030.75
2022-08-26T06:54:51.095Z,100031.16
2022-08-26T06:57:55.170Z,100030.81
2022-08-26T07:01:00.668Z,100026.16
2022-08-26T07:04:07.914Z,100021.84
2022-08-26T07:07:16.241Z,100030.06
2022-08-26T07:10:18.656Z,100024.00
2022-08-26T07:13:30.714Z,100029.41
2022-08-26T07:16:33.688Z,100024.34
2022-08-26T07:19:38.443Z,100022.97
2022-08-26T07:22:42.515Z,100027.50
2022-08-26T07:25:47.941Z,100027.81
2022-08-26T07:28:53.816Z,100026.47
2022-08-26T07:31:56.461Z,100032.28
2022-08-26T07:34:59.431Z,100024.28
2022-08-26T07:38:01.865Z,100024.56
2022-08-26T07:41:04.761Z,100020.53
2022-08-26T07:44:09.034Z,100017.66
2022-08-26T07:47:24.870Z,100021.25
2022-08-26T07:50:48.859Z,100016.56
2022-08-26T07:53:52.684Z,100012.53
2022-08-26T07:56:55.796Z,100012.72
2022-08-26T07:59:58.497Z,100025.53
2022-08-26T08:03:00.874Z,100013.28
2022-08-26T08:06:02.919Z,100009.81
2022-08-26T08:09:05.481Z,100012.66
2022-08-26T08:12:14.238Z,99997.88
2022-08-26T08:15:16.938Z,100005.66
2022-08-26T08:18:20.360Z,99998.34
2022-08-26T08:21:24.344Z,99992.63
2022-08-26T08:24:26.368Z,100003.97
2022-08-26T08:27:28.231Z,99989.25
2022-08-26T08:30:31.404Z,99986.97
2022-08-26T08:33:36.908Z,99990.62
2022-08-26T08:36:40.461Z,99998.53
2022-08-26T08:39:43.648Z,99982.94
2022-08-26T08:42:57.362Z,99979.38
2022-08-26T08:46:01.099Z,99974.22
2022-08-26T08:49:06.283Z,99982.59
2022-08-26T08:52:18.434Z,99964.69
2022-08-26T08:55:21.786Z,99975.91
2022-08-26T08:58:44.226Z,99976.13
2022-08-26T09:01:54.121Z,99968.97
2022-08-26T09:05:02.383Z,99971.69
2022-08-26T09:08:11.900Z,99969.03
2022-08-26T09:11:14.360Z,99968.44
2022-08-26T09:14:16.255Z,99972.38
2022-08-26T09:17:19.287Z,99968.56
2022-08-26T09:20:40.580Z,99960.41
2022-08-26T09:23:43.136Z,99945.75
2022-08-26T09:26:47.585Z,99954.16
2022-08-26T09:29:50.487Z,99937.31
2022-08-26T09:33:10.368Z,99946.03
2022-08-26T09:36:26.280Z,99945.34
2022-08-26T09:39:38.198Z,99936.19
2022-08-26T09:42:40.210Z,99947.84
2022-08-26T09:45:50.139Z,99940.31
2022-08-26T09:48:53.323Z,99940.84
2022-08-26T09:52:04.302Z,99935.00
2022-08-26T09:55:08.048Z,99934.94
2022-08-26T09:58:33.243Z,99937.31
2022-08-26T10:01:36.291Z,99927.69
2022-08-26T10:04:38.347Z,99931.09
2022-08-26T10:07:43.499Z,99924.31
2022-08-26T10:10:45.394Z,99919.25
2022-08-26T10:13:57.442Z,99922.41
2022-08-26T10:17:07.733Z,99915.78
2022-08-26T10:20:23.133Z,99909.78
2022-08-26T10:23:26.224Z,99915.31
2022-08-26T10:26:48.200Z,99919.78
2022-08-26T10:29:51.298Z,99917.34
2022-08-26T10:32:56.001Z,99916.13
2022-08-26T10:35:58.882Z,99920.75
2022-08-26T10:39:01.536Z,99903.47
2022-08-26T10:42:05.239Z,99904.47
2022-08-26T10:45:15.458Z,99899.69
2022-08-26T10:48:19.087Z,99894.94
2022-08-26T10:51:36.532Z,99894.06
2022-08-26T10:54:44.243Z,99898.03
2022-08-26T10:57:56.093Z,99898.97
2022-08-26T11:01:32.078Z,99893.59
2022-08-26T11:04:48.697Z,99895.59
2022-08-26T11:07:56.068Z,99886.25
2022-08-26T11:10:59.615Z,99873.56
2022-08-26T11:14:08.694Z,99888.47
2022-08-26T11:17:11.912Z,99875.78
2022-08-26T11:20:22.704Z,99873.53
2022-08-26T11:23:28.461Z,99872.22
2022-08-26T11:26:37.756Z,99866.28
2022-08-26T11:29:56.551Z,99870.72
2022-08-26T11:32:58.721Z,99863.28
2022-08-26T11:36:00.597Z,99846.63
2022-08-26T11:39:14.311Z,99846.94
2022-08-26T11:42:20.178Z,99837.91
2022-08-26T11:45:23.422Z,99846.69
2022-08-26T11:48:36.697Z,99845.66
2022-08-26T11:51:40.877Z,99842.66
2022-08-26T11:55:02.019Z,99834.69
2022-08-26T11:58:04.758Z,99825.31
2022-08-26T12:01:09.731Z,99831.94
2022-08-26T12:04:17.283Z,99826.53
2022-08-26T12:07:24.178Z,99812.09
2022-08-26T12:10:29.825Z,99811.81
2022-08-26T12:13:31.981Z,99816.59
2022-08-26T12:16:39.064Z,99808.03
2022-08-26T12:19:41.725Z,99801.38
2022-08-26T12:22:43.596Z,99791.78
2022-08-26T12:25:51.542Z,99790.31
2022-08-26T12:29:00.329Z,99787.84
2022-08-26T12:32:09.619Z,99787.41
2022-08-26T12:35:12.616Z,99785.81
2022-08-26T12:38:15.128Z,99779.56
2022-08-26T12:41:35.587Z,99770.75
2022-08-26T12:44:53.775Z,99772.22
2022-08-26T12:47:58.136Z,99762.69
2022-08-26T12:50:59.966Z,99759.88
2022-08-26T12:54:06.698Z,99756.56
2022-08-26T12:57:12.245Z,99759.19
2022-08-26T13:00:29.475Z,99756.47
2022-08-26T13:03:34.320Z,99761.81
2022-08-26T13:06:36.226Z,99757.09
2022-08-26T13:09:38.558Z,99755.19
2022-08-26T13:12:41.170Z,99761.50
2022-08-26T13:15:43.066Z,99749.59
2022-08-26T13:18:45.609Z,99747.00
2022-08-26T13:21:54.757Z,99743.22
2022-08-26T13:24:56.941Z,99735.19
2022-08-26T13:27:58.854Z,99732.06
2022-08-26T13:31:00.944Z,99733.97
2022-08-26T13:34:04.192Z,99737.34
2022-08-26T13:37:06.423Z,99729.69
2022-08-26T13:40:09.089Z,99734.25
2022-08-26T13:43:11.377Z,99718.41
2022-08-26T13:46:13.405Z,99724.56
2022-08-26T13:49:15.318Z,99726.41
2022-08-26T13:52:17.818Z,99719.69
2022-08-26T13:55:31.906Z,99715.44
2022-08-26T13:58:33.765Z,99717.59
2022-08-26T14:01:35.765Z,99716.06
2022-08-26T14:04:37.607Z,99707.84
2022-08-26T14:07:39.861Z,99711.44
2022-08-26T14:10:42.402Z,99708.94
2022-08-26T14:13:44.379Z,99704.28
2022-08-26T14:16:58.983Z,99708.09
2022-08-26T14:20:02.215Z,99714.38
2022-08-26T14:23:13.582Z,99715.09
2022-08-26T14:26:28.904Z,99713.69
2022-08-26T14:29:31.701Z,99724.84
2022-08-26T14:32:33.914Z,99722.56
2022-08-26T14:35:35.850Z,99727.09
2022-08-26T14:38:37.655Z,99730.78
2022-08-26T14:41:54.443Z,99722.41
2022-08-26T14:44:57.765Z,99724.13
2022-08-26T14:47:59.853Z,99724.72
2022-08-26T14:51:01.688Z,99725.13
2022-08-26T14:54:12.361Z,99723.53
2022-08-26T14:57:15.120Z,99715.44
2022-08-26T15:00:17.223Z,99707.69
2022-08-26T15:06:26.014Z,99707.97
2022-08-26T15:09:28.242Z,99710.16
2022-08-26T15:12:30.097Z,99704.94
2022-08-26T15:15:31.962Z,99705.84
2022-08-26T15:18:33.792Z,99711.16
2022-08-26T15:21:35.850Z,99699.44
2022-08-26T15:24:37.779Z,99701.00
2022-08-26T15:27:39.771Z,99687.81
2022-08-26T15:30:42.343Z,99699.69
2022-08-26T15:33:44.330Z,99701.44
2022-08-26T15:36:46.769Z,99683.19
2022-08-26T15:39:48.998Z,99696.34
2022-08-26T15:42:57.618Z,99695.91
2022-08-26T15:46:03.395Z,99698.97
2022-08-26T15:49:05.300Z,99698.47
2022-08-26T15:52:07.584Z,99694.06
2022-08-26T15:55:09.529Z,99687.28
2022-08-26T15:58:11.645Z,99681.69
2022-08-26T16:01:14.869Z,99683.50
2022-08-26T16:04:20.369Z,99669.66
2022-08-26T16:07:22.274Z,99667.00
2022-08-26T16:10:24.537Z,99671.44
2022-08-26T16:13:26.350Z,99677.03
2022-08-26T16:16:30.869Z,99678.22
2022-08-26T16:19:32.811Z,99668.78
2022-08-26T16:22:34.648Z,99667.59
2022-08-26T16:25:36.686Z,99671.97
2022-08-26T16:28:38.770Z,99665.34
2022-08-26T16:31:41.215Z,99674.59
2022-08-26T16:34:56.143Z,99681.59
2022-08-26T16:37:58.446Z,99672.94
2022-08-26T16:41:01.151Z,99676.84
2022-08-26T16:44:03.407Z,99681.13
2022-08-26T16:47:05.278Z,99680.87
2022-08-26T16:50:09.393Z,99680.31
2022-08-26T16:56:19.215Z,99677.97
2022-08-26T16:59:21.569Z,99679.47
2022-08-26T17:02:23.441Z,99683.59
2022-08-26T17:05:27.741Z,99682.78
2022-08-26T17:08:29.781Z,99681.16
2022-08-26T17:11:31.605Z,99686.34
2022-08-26T17:14:33.642Z,99672.78
2022-08-26T17:17:35.483Z,99672.66
2022-08-26T17:20:37.401Z,99678.75
2022-08-26T17:23:39.546Z,99680.87
2022-08-26T17:26:44.306Z,99680.41
2022-08-26T17:29:50.492Z,99689.56
2022-08-26T17:32:52.902Z,99684.34
2022-08-26T17:35:55.207Z,99679.56
2022-08-26T17:38:57.755Z,99684.94
2022-08-26T17:42:00.173Z,99686.25
2022-08-26T17:45:02.081Z,99682.31
2022-08-26T17:48:04.297Z,99686.41
2022-08-26T17:51:13.542Z,99681.19
2022-08-26T17:54:15.605Z,99683.16
2022-08-26T17:57:17.563Z,99681.41
2022-08-26T18:00:22.345Z,99691.28
2022-08-26T18:03:24.287Z,99691.75
2022-08-26T18:06:26.155Z,99698.44
2022-08-26T18:09:31.563Z,99697.03
2022-08-26T18:12:33.600Z,99692.09
2022-08-26T18:15:38.146Z,99699.59
2022-08-26T18:18:40.185Z,99701.97
2022-08-26T18:21:42.148Z,99699.53
2022-08-26T18:24:58.805Z,99698.91
2022-08-26T18:28:01.223Z,99701.50
2022-08-26T18:31:03.430Z,99700.03
2022-08-26T18:34:05.359Z,99694.69
2022-08-26T18:37:14.364Z,99691.22
2022-08-26T18:40:16.366Z,99697.44
2022-08-26T18:43:18.344Z,99700.91
2022-08-26T18:46:21.168Z,99706.41
2022-08-26T18:49:23.182Z,99700.34
2022-08-26T18:52:25.040Z,99706.63
2022-08-26T18:55:26.977Z,99705.09
2022-08-26T18:58:28.786Z,99710.72
2022-08-26T19:01:31.034Z,99712.63
2022-08-26T19:04:33.190Z,99710.66
2022-08-26T19:07:39.402Z,99715.50
2022-08-26T19:10:41.813Z,99724.81
2022-08-26T19:13:44.189Z,99718.72
2022-08-26T19:16:46.883Z,99725.19
2022-08-26T19:19:48.819Z,99727.47
2022-08-26T19:22:50.779Z,99725.69
2022-08-26T19:25:52.891Z,99722.69
2022-08-26T19:28:54.831Z,99730.09
2022-08-26T19:31:56.749Z,99728.94
2022-08-26T19:34:58.613Z,99721.03
2022-08-26T19:38:00.602Z,99723.28
2022-08-26T19:41:02.451Z,99728.72
2022-08-26T19:44:09.785Z,99732.69
2022-08-26T19:47:11.773Z,99726.41
2022-08-26T19:50:14.360Z,99733.81
2022-08-26T19:53:16.379Z,99743.97
2022-08-26T19:56:18.556Z,99747.59
2022-08-26T19:59:20.786Z,99741.06
2022-08-26T20:02:22.966Z,99741.66
2022-08-26T20:05:25.558Z,99747.88
2022-08-26T20:08:28.594Z,99751.25
2022-08-26T20:11:31.660Z,99746.84
2022-08-26T20:14:34.997Z,99754.16
2022-08-26T20:17:36.840Z,99753.66
2022-08-26T20:20:57.426Z,99756.56
2022-08-26T20:24:04.301Z,99763.09
2022-08-26T20:27:07.934Z,99771.72
2022-08-26T20:30:10.236Z,99762.16
2022-08-26T20:33:12.891Z,99770.94
2022-08-26T20:36:15.195Z,99761.81
2022-08-26T20:39:17.369Z,99768.53
2022-08-26T20:42:20.059Z,99768.75
2022-08-26T20:45:22.414Z,99776.34
2022-08-26T20:48:24.316Z,99774.75
2022-08-26T20:51:26.784Z,99769.62
2022-08-26T20:54:28.684Z,99779.75
2022-08-26T20:57:30.505Z,99786.63
2022-08-26T21:00:32.521Z,99789.31
2022-08-26T21:03:34.747Z,99783.22
2022-08-26T21:06:38.285Z,99789.69
2022-08-26T21:09:40.198Z,99799.34
2022-08-26T21:12:44.138Z,99801.88
2022-08-26T21:15:46.010Z,99806.69
2022-08-26T21:18:47.938Z,99804.81
2022-08-26T21:21:50.068Z,99802.19
2022-08-26T21:24:51.923Z,99799.16
2022-08-26T21:27:56.514Z,99793.41
2022-08-26T21:30:58.351Z,99802.44
2022-08-26T21:34:00.263Z,99805.59
2022-08-26T21:37:02.074Z,99796.25
2022-08-26T21:40:11.123Z,99800.91
2022-08-26T21:43:18.815Z,99803.72
2022-08-26T21:46:37.169Z,99797.53
2022-08-26T21:49:39.010Z,99804.41
2022-08-26T21:52:40.954Z,99796.41
2022-08-26T21:55:42.871Z,99805.91
2022-08-26T21:58:44.869Z,99803.53
2022-08-26T22:01:47.111Z,99802.25
2022-08-26T22:04:49.101Z,99809.53
2022-08-26T22:07:51.769Z,99797.63
2022-08-26T22:10:54.938Z,99799.16
2022-08-26T22:13:57.735Z,99802.59
2022-08-26T22:16:59.762Z,99798.91
2022-08-26T22:20:01.688Z,99801.16
2022-08-26T22:23:03.774Z,99801.13
2022-08-26T22:26:06.454Z,99794.91
2022-08-26T22:29:08.397Z,99801.09
2022-08-26T22:32:10.295Z,99801.66
2022-08-26T22:35:28.707Z,99797.88
2022-08-26T22:38:31.627Z,99788.13
2022-08-26T22:41:34.265Z,99789.44
2022-08-26T22:44:37.468Z,99788.13
2022-08-26T22:47:39.734Z,99782.75
2022-08-26T22:50:42.247Z,99786.66
2022-08-26T22:53:45.164Z,99773.91
2022-08-26T22:56:47.060Z,99783.09
2022-08-26T22:59:48.888Z,99797.38
2022-08-26T23:02:50.855Z,99786.19
2022-08-26T23:05:52.765Z,99782.09
2022-08-26T23:08:55.403Z,99774.47
2022-08-26T23:11:57.263Z,99781.84
2022-08-26T23:14:59.303Z,99776.88
2022-08-26T23:18:01.141Z,99786.63
2022-08-26T23:21:02.994Z,99770.78
2022-08-26T23:24:05.336Z,99777.06
2022-08-26T23:27:07.200Z,99766.31
2022-08-26T23:30:10.335Z,99774.69
2022-08-26T23:33:12.266Z,99780.37
2022-08-26T23:36:17.575Z,99768.12
2022-08-26T23:39:20.075Z,99772.59
2022-08-26T23:42:22.873Z,99770.81
2022-08-26T23:45:25.056Z,99762.56
2022-08-26T23:48:26.974Z,99766.81
2022-08-26T23:51:47.297Z,99749.69
2022-08-26T23:54:50.274Z,99758.78
2022-08-26T23:57:52.145Z,99765.06
